createdAt,value
2022-08-11T00:01:33.086Z,9.52
2022-08-11T00:04:07.003Z,8.63
2022-08-11T00:06:39.951Z,8.45
2022-08-11T00:09:14.626Z,7.47
2022-08-11T00:11:59.004Z,7.50
2022-08-11T00:14:37.862Z,8.40
2022-08-11T00:17:16.909Z,7.38
2022-08-11T00:20:14.462Z,7.38
2022-08-11T00:22:44.610Z,6.93
2022-08-11T00:25:23.757Z,10.68
2022-08-11T00:27:54.920Z,8.77
2022-08-11T00:30:25.977Z,13.75
2022-08-11T00:33:00.919Z,8.73
2022-08-11T00:35:56.158Z,7.50
2022-08-11T00:38:38.135Z,8.50
2022-08-11T00:41:39.466Z,8.98
2022-08-11T00:44:10.462Z,7.88
2022-08-11T00:46:55.478Z,8.15
2022-08-11T00:49:51.787Z,7.95
2022-08-11T00:53:10.209Z,6.65
2022-08-11T00:56:03.152Z,5.57
2022-08-11T00:59:34.614Z,8.45
2022-08-11T01:02:41.561Z,6.82
2022-08-11T01:05:47.570Z,5.82
2022-08-11T01:09:22.806Z,3.92
2022-08-11T01:12:21.587Z,8.70
2022-08-11T01:15:12.938Z,6.03
2022-08-11T01:17:51.914Z,9.30
2022-08-11T01:20:49.772Z,4.72
2022-08-11T01:23:41.088Z,5.57
2022-08-11T01:26:52.360Z,4.13
2022-08-11T01:29:37.705Z,5.72
2022-08-11T01:32:40.429Z,8.55
2022-08-11T01:35:38.095Z,5.53
2022-08-11T01:38:29.768Z,7.22
2022-08-11T01:41:18.079Z,6.65
2022-08-11T01:44:41.415Z,6.85
2022-08-11T01:47:54.585Z,6.40
2022-08-11T01:50:56.481Z,5.78
2022-08-11T01:54:06.621Z,8.32
2022-08-11T01:57:08.360Z,6.57
2022-08-11T01:59:53.091Z,6.03
2022-08-11T02:02:48.654Z,6.53
2022-08-11T02:05:48.552Z,6.85
2022-08-11T02:08:36.730Z,9.10
2022-08-11T02:11:54.604Z,8.32
2022-08-11T02:15:04.771Z,8.68
2022-08-11T02:17:56.204Z,7.10
2022-08-11T02:20:50.557Z,12.43
2022-08-11T02:24:07.308Z,6.70
2022-08-11T02:26:44.598Z,5.47
2022-08-11T02:29:41.213Z,5.63
2022-08-11T02:33:02.930Z,5.05
2022-08-11T02:35:54.618Z,6.65
2022-08-11T02:38:49.745Z,4.80
2022-08-11T02:41:44.686Z,7.03
2022-08-11T02:44:59.566Z,7.13
2022-08-11T02:47:41.786Z,4.65
2022-08-11T02:50:23.240Z,5.82
2022-08-11T02:53:08.673Z,6.07
2022-08-11T02:56:31.186Z,6.82
2022-08-11T02:59:26.352Z,6.63
2022-08-11T03:02:32.178Z,3.78
2022-08-11T03:05:22.701Z,7.03
2022-08-11T03:08:26.623Z,2.92
2022-08-11T03:11:33.784Z,6.88
2022-08-11T03:14:30.256Z,4.75
2022-08-11T03:17:05.098Z,5.68
2022-08-11T03:19:44.139Z,3.67
2022-08-11T03:23:02.379Z,9.15
2022-08-11T03:25:55.305Z,6.00
2022-08-11T03:29:03.800Z,4.80
2022-08-11T03:31:46.945Z,5.30
2022-08-11T03:34:24.245Z,5.25
2022-08-11T03:37:16.107Z,6.65
2022-08-11T03:40:09.906Z,3.90
2022-08-11T03:42:55.613Z,4.93
2022-08-11T03:45:41.297Z,4.70
2022-08-11T03:48:42.022Z,5.10
2022-08-11T03:51:54.376Z,4.22
2022-08-11T03:54:45.259Z,4.97
2022-08-11T03:57:38.326Z,6.75
2022-08-11T04:00:32.162Z,3.65
2022-08-11T04:03:31.057Z,8.35
2022-08-11T04:06:38.288Z,4.95
2022-08-11T04:09:29.856Z,5.85
2022-08-11T04:12:09.365Z,6.65
2022-08-11T04:15:08.169Z,5.40
2022-08-11T04:17:59.563Z,6.40
2022-08-11T04:21:00.539Z,5.38
2022-08-11T04:24:34.848Z,6.55
2022-08-11T04:27:10.438Z,6.22
2022-08-11T04:30:26.940Z,7.18
2022-08-11T04:33:34.385Z,4.63
2022-08-11T04:36:43.594Z,5.70
2022-08-11T04:39:24.266Z,4.10
2022-08-11T04:42:35.291Z,6.70
2022-08-11T04:45:29.757Z,4.63
2022-08-11T04:48:57.549Z,5.60
2022-08-11T04:52:26.144Z,4.35
2022-08-11T04:59:09.492Z,5.00
2022-08-11T05:05:06.729Z,4.38
2022-08-11T05:08:06.876Z,4.95
2022-08-11T05:11:10.228Z,6.22
2022-08-11T05:14:08.393Z,5.15
2022-08-11T05:17:10.772Z,7.20
2022-08-11T05:20:06.762Z,6.03
2022-08-11T05:22:56.082Z,6.63
2022-08-11T05:26:43.687Z,6.53
2022-08-11T05:29:19.942Z,6.50
2022-08-11T05:32:18.802Z,7.88
2022-08-11T05:34:56.246Z,10.70
2022-08-11T05:37:36.062Z,5.88
2022-08-11T05:40:34.719Z,5.95
2022-08-11T05:43:29.157Z,7.03
2022-08-11T05:46:26.871Z,5.38
2022-08-11T05:49:16.197Z,3.85
2022-08-11T05:52:16.622Z,6.22
2022-08-11T05:55:12.820Z,5.80
2022-08-11T05:57:51.083Z,4.35
2022-08-11T06:00:30.111Z,7.47
2022-08-11T06:03:09.289Z,5.78
2022-08-11T06:05:44.340Z,7.70
2022-08-11T06:08:18.527Z,5.10
2022-08-11T06:11:18.543Z,5.85
2022-08-11T06:14:24.794Z,6.25
2022-08-11T06:17:06.423Z,6.00
2022-08-11T06:19:57.390Z,5.47
2022-08-11T06:22:39.342Z,5.05
2022-08-11T06:28:20.707Z,9.48
2022-08-11T06:31:31.415Z,9.30
2022-08-11T06:41:20.198Z,7.40
2022-08-11T06:44:08.898Z,7.93
2022-08-11T06:46:49.432Z,4.07
2022-08-11T06:49:43.269Z,6.25
2022-08-11T06:52:34.791Z,7.10
2022-08-11T06:55:55.788Z,5.95
2022-08-11T06:59:09.552Z,5.97
2022-08-11T07:05:07.759Z,7.97
2022-08-11T07:12:14.847Z,5.53
2022-08-11T07:15:17.654Z,6.43
2022-08-11T07:18:12.131Z,6.22
2022-08-11T07:21:02.385Z,8.57
2022-08-11T07:24:00.317Z,3.67
2022-08-11T07:27:03.198Z,2.83
2022-08-11T07:29:40.840Z,2.60
2022-08-11T07:35:31.285Z,2.75
2022-08-11T07:38:07.838Z,2.40
2022-08-11T07:40:52.255Z,3.20
2022-08-11T07:43:30.964Z,2.17
2022-08-11T07:46:37.770Z,3.60
2022-08-11T07:49:30.229Z,1.90
2022-08-11T07:52:20.350Z,1.55
2022-08-11T07:54:51.283Z,1.70
2022-08-11T07:58:15.783Z,2.15
2022-08-11T08:01:22.489Z,2.40
2022-08-11T08:04:12.514Z,2.72
2022-08-11T08:07:00.923Z,2.42
2022-08-11T08:09:54.244Z,2.60
2022-08-11T08:12:45.811Z,4.18
2022-08-11T08:15:36.399Z,3.55
2022-08-11T08:18:26.487Z,3.15
2022-08-11T08:21:13.831Z,7.32
2022-08-11T08:23:53.045Z,13.63
2022-08-11T08:26:48.242Z,10.45
2022-08-11T08:29:42.204Z,12.68
2022-08-11T08:32:13.565Z,15.23
2022-08-11T08:34:44.277Z,9.57
2022-08-11T08:37:46.103Z,11.88
2022-08-11T08:40:10.128Z,7.60
2022-08-11T08:42:57.071Z,7.20
2022-08-11T08:45:29.096Z,7.95
2022-08-11T08:48:15.965Z,6.90
2022-08-11T08:51:18.155Z,7.72
2022-08-11T08:53:58.436Z,8.82
2022-08-11T08:56:36.130Z,9.23
2022-08-11T08:59:07.627Z,4.78
2022-08-11T09:02:03.160Z,5.82
2022-08-11T09:04:35.081Z,5.68
2022-08-11T09:07:20.384Z,3.15
2022-08-11T09:09:56.879Z,2.65
2022-08-11T09:12:38.199Z,3.67
2022-08-11T09:15:20.143Z,2.60
2022-08-11T09:18:05.320Z,3.58
2022-08-11T09:20:48.777Z,2.28
2022-08-11T09:26:52.329Z,2.92
2022-08-11T09:29:23.188Z,3.83
2022-08-11T09:31:54.705Z,3.00
2022-08-11T09:34:25.552Z,4.25
2022-08-11T09:37:28.405Z,3.70
2022-08-11T09:40:41.358Z,2.90
2022-08-11T09:43:35.777Z,2.17
2022-08-11T09:46:07.232Z,3.08
2022-08-11T09:48:45.384Z,5.45
2022-08-11T09:51:16.958Z,4.50
2022-08-11T09:54:03.615Z,4.15
2022-08-11T09:56:53.915Z,5.25
2022-08-11T09:59:25.789Z,4.85
2022-08-11T10:02:01.610Z,5.38
2022-08-11T10:04:41.055Z,4.97
2022-08-11T10:07:12.566Z,4.55
2022-08-11T10:10:08.695Z,6.25
2022-08-11T10:12:44.622Z,6.63
2022-08-11T10:15:59.551Z,4.13
2022-08-11T10:18:54.085Z,4.80
2022-08-11T10:21:40.367Z,5.03
2022-08-11T10:24:31.221Z,4.03
2022-08-11T10:27:01.984Z,4.63
2022-08-11T10:29:56.584Z,3.10
2022-08-11T10:32:58.844Z,3.17
2022-08-11T10:35:33.196Z,5.93
2022-08-11T10:38:06.060Z,4.03
2022-08-11T10:40:43.325Z,4.20
2022-08-11T10:43:57.206Z,4.38
2022-08-11T10:46:30.218Z,6.55
2022-08-11T10:49:04.051Z,7.18
2022-08-11T10:51:54.250Z,6.50
2022-08-11T10:54:48.312Z,6.07
2022-08-11T10:57:37.891Z,5.13
2022-08-11T11:00:09.641Z,5.03
2022-08-11T11:02:41.822Z,4.55
2022-08-11T11:05:29.179Z,3.88
2022-08-11T11:08:51.905Z,6.45
2022-08-11T11:11:25.156Z,3.53
2022-08-11T11:14:15.061Z,3.63
2022-08-11T11:16:51.428Z,4.55
2022-08-11T11:19:26.793Z,3.92
2022-08-11T11:22:20.043Z,5.55
2022-08-11T11:25:18.157Z,4.85
2022-08-11T11:31:11.980Z,3.78
2022-08-11T11:34:15.329Z,6.35
2022-08-11T11:36:53.414Z,4.25
2022-08-11T11:39:34.134Z,5.35
2022-08-11T11:42:09.809Z,6.63
2022-08-11T11:44:48.924Z,6.83
2022-08-11T11:47:22.001Z,5.90
2022-08-11T11:49:53.009Z,6.85
2022-08-11T11:52:24.516Z,9.07
2022-08-11T11:55:00.041Z,9.23
2022-08-11T11:57:58.728Z,7.07
2022-08-11T12:00:50.977Z,5.28
2022-08-11T12:03:23.331Z,4.57
2022-08-11T12:05:55.026Z,3.40
2022-08-11T12:08:35.735Z,4.47
2022-08-11T12:11:30.480Z,7.72
2022-08-11T12:14:04.738Z,7.43
2022-08-11T12:16:48.434Z,8.00
2022-08-11T12:19:25.175Z,4.70
2022-08-11T12:22:29.158Z,5.55
2022-08-11T12:25:20.027Z,5.40
2022-08-11T12:27:50.746Z,6.32
2022-08-11T12:30:31.131Z,7.03
2022-08-11T12:33:01.692Z,8.40
2022-08-11T12:35:32.189Z,10.05
2022-08-11T12:38:09.882Z,9.50
2022-08-11T12:41:17.687Z,8.55
2022-08-11T12:44:07.805Z,9.00
2022-08-11T12:46:40.341Z,9.45
2022-08-11T12:49:35.943Z,8.57
2022-08-11T12:52:16.708Z,11.45
2022-08-11T12:55:02.133Z,9.40
2022-08-11T12:58:03.088Z,7.35
2022-08-11T13:00:56.741Z,8.43
2022-08-11T13:03:52.444Z,9.60
2022-08-11T13:06:28.004Z,6.80
2022-08-11T13:09:01.464Z,6.05
2022-08-11T13:11:57.091Z,7.35
2022-08-11T13:14:33.183Z,7.38
2022-08-11T13:17:43.489Z,8.18
2022-08-11T13:20:14.981Z,9.27
2022-08-11T13:22:47.691Z,6.07
2022-08-11T13:25:19.605Z,7.43
2022-08-11T13:30:47.123Z,8.00
2022-08-11T13:33:21.715Z,3.63
2022-08-11T13:35:55.060Z,4.40
2022-08-11T13:38:33.068Z,4.95
2022-08-11T13:41:24.138Z,5.20
2022-08-11T13:43:56.651Z,6.97
2022-08-11T13:46:42.529Z,4.95
2022-08-11T13:49:22.172Z,4.90
2022-08-11T13:51:54.707Z,6.90
2022-08-11T13:54:31.692Z,3.38
2022-08-11T13:57:13.668Z,7.65
2022-08-11T14:00:13.880Z,5.63
2022-08-11T14:03:01.756Z,4.35
2022-08-11T14:05:48.797Z,5.60
2022-08-11T14:08:38.843Z,5.93
2022-08-11T14:12:23.735Z,4.95
2022-08-11T14:14:27.342Z,6.05
2022-08-11T14:16:59.829Z,4.38
2022-08-11T14:19:30.537Z,5.95
2022-08-11T14:22:10.172Z,6.70
2022-08-11T14:24:56.004Z,5.72
2022-08-11T14:28:32.695Z,6.05
2022-08-11T14:30:42.367Z,5.75
2022-08-11T14:33:16.616Z,6.50
2022-08-11T14:35:48.884Z,4.90
2022-08-11T14:38:25.983Z,8.07
2022-08-11T14:41:14.386Z,8.77
2022-08-11T14:44:12.441Z,3.92
2022-08-11T14:47:04.940Z,5.07
2022-08-11T14:50:11.833Z,5.78
2022-08-11T14:52:59.336Z,6.55
2022-08-11T14:55:52.950Z,6.40
2022-08-11T14:58:27.428Z,5.32
2022-08-11T15:01:00.562Z,5.50
2022-08-11T15:03:35.209Z,5.18
2022-08-11T15:06:08.626Z,5.40
2022-08-11T15:08:56.867Z,3.88
2022-08-11T15:11:55.153Z,5.93
2022-08-11T15:14:43.978Z,4.18
2022-08-11T15:17:18.016Z,6.13
2022-08-11T15:20:08.892Z,7.18
2022-08-11T15:22:57.270Z,6.75
2022-08-11T15:25:28.377Z,7.05
2022-08-11T15:28:19.727Z,5.80
2022-08-11T15:31:11.403Z,7.68
2022-08-11T15:34:06.003Z,6.65
2022-08-11T15:36:56.203Z,9.23
2022-08-11T15:39:37.058Z,10.20
2022-08-11T15:42:37.914Z,7.88
2022-08-11T15:45:29.844Z,9.55
2022-08-11T15:48:06.074Z,9.57
2022-08-11T15:50:45.591Z,7.95
2022-08-11T15:53:41.139Z,5.80
2022-08-11T15:56:12.975Z,8.45
2022-08-11T15:59:41.883Z,5.75
2022-08-11T16:02:20.989Z,6.47
2022-08-11T16:04:53.221Z,4.97
2022-08-11T16:07:40.766Z,6.78
2022-08-11T16:10:21.314Z,6.90
2022-08-11T16:13:11.469Z,5.18
2022-08-11T16:16:14.233Z,4.25
2022-08-11T16:18:58.529Z,3.60
2022-08-11T16:21:41.964Z,4.65
2022-08-11T16:27:05.055Z,3.80
2022-08-11T16:27:18.820Z,5.75
2022-08-11T16:29:53.073Z,3.67
2022-08-11T16:32:25.869Z,4.65
2022-08-11T16:35:19.069Z,3.40
2022-08-11T16:38:08.580Z,5.57
2022-08-11T16:40:40.021Z,4.75
2022-08-11T16:43:33.733Z,4.57
2022-08-11T16:46:27.890Z,6.10
2022-08-11T16:49:32.837Z,6.35
2022-08-11T16:52:19.016Z,5.05
2022-08-11T16:55:02.247Z,3.53
2022-08-11T16:58:30.551Z,5.68
2022-08-11T17:00:51.306Z,4.93
2022-08-11T17:03:55.806Z,5.43
2022-08-11T17:10:50.266Z,4.88
2022-08-11T17:13:33.204Z,4.57
2022-08-11T17:16:09.443Z,6.35
2022-08-11T17:18:58.131Z,4.28
2022-08-11T17:21:34.769Z,4.80
2022-08-11T17:24:36.116Z,7.55
2022-08-11T17:31:22.764Z,3.50
2022-08-11T17:33:53.523Z,2.45
2022-08-11T17:36:26.004Z,3.42
2022-08-11T17:39:02.184Z,4.13
2022-08-11T17:45:25.510Z,5.47
2022-08-11T17:48:16.523Z,4.18
2022-08-11T17:54:24.360Z,3.42
2022-08-11T17:57:45.635Z,4.05
2022-08-11T18:00:39.893Z,6.60
2022-08-11T18:04:26.147Z,2.97
2022-08-11T18:06:39.424Z,2.22
2022-08-11T18:09:59.152Z,3.88
2022-08-11T18:13:07.809Z,3.75
2022-08-11T18:18:51.890Z,4.43
2022-08-11T18:22:07.826Z,2.90
2022-08-11T18:25:11.123Z,2.97
2022-08-11T18:28:11.584Z,4.47
2022-08-11T18:31:07.500Z,2.55
2022-08-11T18:34:08.723Z,2.95
2022-08-11T18:37:21.769Z,2.95
2022-08-11T18:40:31.071Z,3.53
2022-08-11T18:43:39.400Z,2.28
2022-08-11T18:46:40.970Z,2.78
2022-08-11T18:50:02.061Z,2.70
2022-08-11T18:52:56.578Z,3.47
2022-08-11T18:55:45.720Z,3.53
2022-08-11T18:58:54.870Z,2.33
2022-08-11T19:01:46.206Z,2.80
2022-08-11T19:04:37.902Z,3.17
2022-08-11T19:07:29.510Z,2.38
2022-08-11T19:10:19.960Z,4.28
2022-08-11T19:13:09.372Z,3.70
2022-08-11T19:15:59.640Z,3.22
2022-08-11T19:18:48.501Z,5.03
2022-08-11T19:21:39.352Z,3.70
2022-08-11T19:24:29.634Z,4.40
2022-08-11T19:27:19.041Z,2.60
2022-08-11T19:30:14.013Z,2.78
2022-08-11T19:33:03.307Z,1.35
2022-08-11T19:35:52.604Z,0.88
2022-08-11T19:38:44.879Z,1.05
2022-08-11T19:41:56.302Z,1.65
2022-08-11T19:44:44.460Z,1.23
2022-08-11T19:47:34.465Z,3.22
2022-08-11T19:50:24.959Z,0.80
2022-08-11T19:53:16.985Z,1.42
2022-08-11T19:56:08.434Z,1.60
2022-08-11T19:58:58.101Z,2.03
2022-08-11T20:02:01.370Z,2.58
2022-08-11T20:04:54.529Z,1.23
2022-08-11T20:07:44.020Z,1.55
2022-08-11T20:10:36.508Z,1.08
2022-08-11T20:13:27.986Z,0.80
2022-08-11T20:16:18.173Z,1.55
2022-08-11T20:19:07.974Z,1.05
2022-08-11T20:21:58.152Z,1.83
2022-08-11T20:24:47.283Z,2.33
2022-08-11T20:27:37.181Z,1.92
2022-08-11T20:30:26.047Z,2.20
2022-08-11T20:33:14.125Z,1.65
2022-08-11T20:36:02.386Z,1.30
2022-08-11T20:38:53.543Z,2.10
2022-08-11T20:41:58.188Z,1.10
2022-08-11T20:44:51.753Z,1.75
2022-08-11T20:47:56.312Z,1.05
2022-08-11T20:50:49.066Z,2.45
2022-08-11T20:53:40.599Z,1.38
2022-08-11T20:56:31.049Z,1.63
2022-08-11T20:59:21.617Z,1.88
2022-08-11T21:02:14.399Z,2.33
2022-08-11T21:05:03.096Z,1.65
2022-08-11T21:07:58.775Z,1.60
2022-08-11T21:10:52.201Z,1.85
2022-08-11T21:13:45.956Z,1.23
2022-08-11T21:16:47.320Z,1.95
2022-08-11T21:20:00.010Z,1.40
2022-08-11T21:23:06.321Z,1.05
2022-08-11T21:26:01.074Z,0.90
2022-08-11T21:28:52.112Z,1.15
2022-08-11T21:31:41.563Z,1.13
2022-08-11T21:34:32.540Z,0.70
2022-08-11T21:37:22.061Z,1.10
2022-08-11T21:40:16.374Z,1.42
2022-08-11T21:43:08.639Z,1.60
2022-08-11T21:45:58.557Z,0.88
2022-08-11T21:48:49.098Z,1.02
2022-08-11T21:51:37.539Z,2.78
2022-08-11T21:54:30.248Z,1.90
2022-08-11T21:57:19.374Z,2.90
2022-08-11T22:00:16.716Z,2.40
2022-08-11T22:03:07.135Z,1.77
2022-08-11T22:07:31.805Z,1.27
2022-08-11T22:09:16.193Z,2.05
2022-08-11T22:12:34.324Z,1.85
2022-08-11T22:15:13.660Z,2.42
2022-08-11T22:18:01.622Z,1.27
2022-08-11T22:20:52.267Z,1.63
2022-08-11T22:23:41.662Z,0.85
2022-08-11T22:26:31.747Z,1.52
2022-08-11T22:29:20.779Z,1.10
2022-08-11T22:32:31.696Z,1.40
2022-08-11T22:35:22.714Z,2.10
2022-08-11T22:38:11.321Z,1.50
2022-08-11T22:41:00.030Z,2.15
2022-08-11T22:43:49.200Z,2.25
2022-08-11T22:46:38.967Z,1.33
2022-08-11T22:49:27.453Z,1.63
2022-08-11T22:52:17.580Z,2.40
2022-08-11T22:55:07.190Z,4.00
2022-08-11T22:58:01.255Z,3.17
2022-08-11T23:00:51.591Z,1.50
2022-08-11T23:03:41.281Z,0.95
2022-08-11T23:06:29.842Z,1.58
2022-08-11T23:09:18.951Z,1.20
2022-08-11T23:12:10.392Z,1.88
2022-08-11T23:15:01.701Z,1.85
2022-08-11T23:17:51.838Z,1.25
2022-08-11T23:20:47.364Z,1.50
2022-08-11T23:23:49.062Z,1.00
2022-08-11T23:26:40.908Z,1.80
2022-08-11T23:29:32.115Z,2.03
2022-08-11T23:32:27.215Z,1.55
2022-08-11T23:35:38.476Z,1.60
2022-08-11T23:38:25.832Z,1.27
2022-08-11T23:41:35.159Z,1.27
2022-08-11T23:44:42.635Z,0.45
2022-08-11T23:47:51.338Z,0.85
2022-08-11T23:50:40.720Z,1.02
2022-08-11T23:53:29.735Z,0.80
2022-08-11T23:56:21.757Z,1.55
2022-08-11T23:59:11.287Z,0.73
